This is the latest recevied weather packets stored in our database for station/object TG8AKV-17. If no packets are shown the sender has not sent any weather packets the latest 1 day(s).
| Time | Temp. | Humidity | Pressure | Rain* | Wind** | Luminosity | Snow |
|---|---|---|---|---|---|---|---|
| 1778098820 | 20.56° C | 79% | 1014 hPa | 0 mm | - | - | - |
| 1778097018 | 18.33° C | 82% | 1015 hPa | 0 mm | - | - | - |
| 1778095817 | 18.33° C | 76% | 1015 hPa | 0 mm | - | - | - |
| 1778095216 | 27.22° C | 41% | 1015 hPa | 0 mm | - | - | - |
| 1778092814 | 22.22° C | 49% | 1015 hPa | 0 mm | - | - | - |
| 1778091012 | 25° C | 36% | 1016 hPa | 0 mm | - | - | - |
| 1778089811 | 24.44° C | 38% | 1016 hPa | 0 mm | - | - | - |
| 1778087362 | 20° C | 77% | 1016 hPa | 0 mm | - | - | - |
| 1778083777 | 20° C | 74% | 1016 hPa | 0 mm | - | - | - |
| 1778083176 | 17.78° C | 86% | 1016 hPa | 0 mm | - | - | - |
| 1778081975 | 17.78° C | 90% | 1017 hPa | 0 mm | - | - | - |
| 1778081374 | 15° C | 85% | 1017 hPa | 0 mm | - | - | - |
| 1778078972 | 17.22° C | 84% | 1017 hPa | 0 mm | - | - | - |
| 1778075969 | 12.22° C | 94% | 1017 hPa | 0 mm | - | - | - |
| 1778069963 | 11.67° C | 94% | 1018 hPa | 0 mm | - | - | - |
| 1778068762 | 11.11° C | 94% | 1018 hPa | 0 mm | - | - | - |
| 1778066960 | 11.11° C | 94% | 1018 hPa | 0 mm | - | - | - |
| 1778065759 | 12.78° C | 94% | 1018 hPa | 0 mm | - | - | - |
| 1778064558 | 12.78° C | 93% | 1018 hPa | 0 mm | - | - | - |
| 1778062756 | 12.78° C | 93% | 1017 hPa | 0 mm | - | - | - |
| 1778061555 | 12.78° C | 93% | 1017 hPa | 0 mm | - | - | - |
| 1778060954 | 12.78° C | 93% | 1017 hPa | 0 mm | - | - | - |
| 1778060354 | 12.78° C | 92% | 1017 hPa | 0 mm | - | - | - |
| 1778057951 | 12.78° C | 93% | 1017 hPa | 0 mm | - | - | - |
| 1778057351 | 12.78° C | 92% | 1017 hPa | 0 mm | - | - | - |
* Rain latest hour (hover to see other rain measurements)
** Current wind speed in m/s (hover to see current wind gust speed)